Time;durP1;ratioP1;P1;durP2;ratioP2;P2;SDS_P1;SDS_P2;PMS_P1;PMS_P2;Temp;Humidity;BMP_temperature;BMP_pressure;BME280_temperature;BME280_humidity;BME280_pressure;Samples;Min_cycle;Max_cycle;Signal;HPM_P1;HPM_P2
2022/08/20 00:00:48;;;;;;;0.38;0.38;;;20.00;99.90;;;;;;5092539;27;20054;-86
2022/08/20 00:03:20;;;;;;;0.40;0.40;;;20.00;99.90;;;;;;5076031;27;20108;-87
2022/08/20 00:05:54;;;;;;;0.30;0.30;;;19.90;99.90;;;;;;5092413;27;20092;-87
2022/08/20 00:08:21;;;;;;;0.30;0.30;;;19.90;99.90;;;;;;5089445;27;20039;-88
2022/08/20 00:10:48;;;;;;;0.30;0.30;;;19.90;99.90;;;;;;5090957;27;20142;-87
2022/08/20 00:13:19;;;;;;;0.30;0.30;;;19.90;99.90;;;;;;5092835;27;20055;-87
2022/08/20 00:15:46;;;;;;;0.30;0.30;;;19.80;99.90;;;;;;5076550;27;20074;-88
2022/08/20 00:18:12;;;;;;;0.30;0.30;;;19.80;99.90;;;;;;5090761;27;20040;-87
2022/08/20 00:20:43;;;;;;;0.35;0.35;;;19.80;99.90;;;;;;5090212;27;20053;-87
2022/08/20 00:23:09;;;;;;;0.40;0.40;;;19.80;99.90;;;;;;5075447;27;20122;-88
2022/08/20 00:25:35;;;;;;;0.40;0.40;;;19.80;99.90;;;;;;5091808;27;20027;-87
2022/08/20 00:28:02;;;;;;;0.30;0.30;;;19.80;99.90;;;;;;5070726;28;20105;-87
2022/08/20 00:30:31;;;;;;;0.40;0.40;;;19.70;99.90;;;;;;5038680;28;20051;-87
2022/08/20 00:33:07;;;;;;;0.30;0.30;;;19.70;99.90;;;;;;5055407;28;20039;-88
2022/08/20 00:35:35;;;;;;;0.30;0.30;;;19.60;99.90;;;;;;5092547;28;20048;-89
2022/08/20 00:38:02;;;;;;;0.30;0.30;;;19.60;99.90;;;;;;5075444;28;20039;-88
2022/08/20 00:40:31;;;;;;;0.30;0.30;;;19.60;99.90;;;;;;5090275;28;20043;-88
2022/08/20 00:42:59;;;;;;;0.30;0.30;;;19.70;99.90;;;;;;5089691;28;20039;-87
2022/08/20 00:45:31;;;;;;;0.30;0.30;;;19.60;99.90;;;;;;5063449;28;20042;-88
2022/08/20 00:47:57;;;;;;;3.13;0.50;;;19.60;99.90;;;;;;5086239;28;20134;-87
2022/08/20 00:50:34;;;;;;;0.30;0.30;;;19.60;99.90;;;;;;5084980;28;20067;-87
2022/08/20 00:53:02;;;;;;;0.30;0.30;;;19.60;99.90;;;;;;5097254;27;20048;-88
2022/08/20 00:55:29;;;;;;;0.30;0.30;;;19.60;99.90;;;;;;5101454;27;20043;-88
2022/08/20 00:58:00;;;;;;;0.30;0.30;;;19.60;99.90;;;;;;5085907;28;20036;-87
2022/08/20 01:00:36;;;;;;;0.30;0.30;;;19.50;99.90;;;;;;5087565;28;20040;-88
2022/08/20 01:03:02;;;;;;;0.30;0.30;;;19.40;99.90;;;;;;5086234;28;20055;-88
2022/08/20 01:05:29;;;;;;;0.30;0.30;;;19.40;99.90;;;;;;5088463;28;20787;-88
2022/08/20 01:07:55;;;;;;;0.30;0.30;;;19.40;99.90;;;;;;5072634;28;20468;-88
2022/08/20 01:10:26;;;;;;;0.30;0.30;;;19.40;99.90;;;;;;5090217;28;20831;-89
2022/08/20 01:12:54;;;;;;;0.30;0.30;;;19.50;99.90;;;;;;5072692;28;20090;-88
2022/08/20 01:15:23;;;;;;;0.30;0.30;;;19.50;99.90;;;;;;5088059;28;20050;-89
2022/08/20 01:17:53;;;;;;;0.30;0.30;;;19.50;99.90;;;;;;5086747;28;20052;-89
2022/08/20 01:20:29;;;;;;;0.30;0.30;;;19.40;99.90;;;;;;5082001;28;20110;-89
2022/08/20 01:23:29;;;;;;;0.30;0.30;;;19.50;99.90;;;;;;5073855;28;20047;-88
2022/08/20 01:26:36;;;;;;;0.30;0.30;;;19.50;99.90;;;;;;5088843;28;20067;-88
2022/08/20 01:29:13;;;;;;;0.30;0.30;;;19.50;99.90;;;;;;5075821;27;20047;-88
2022/08/20 01:31:40;;;;;;;0.30;0.30;;;19.50;99.90;;;;;;5086558;28;20045;-88
2022/08/20 01:34:09;;;;;;;0.30;0.30;;;19.60;99.90;;;;;;5091122;28;20039;-87
2022/08/20 01:36:42;;;;;;;0.30;0.30;;;19.50;99.90;;;;;;5091193;28;20054;-88
2022/08/20 01:39:11;;;;;;;0.40;0.40;;;19.50;99.90;;;;;;5092597;28;20130;-89
2022/08/20 01:42:08;;;;;;;0.30;0.30;;;19.50;99.90;;;;;;5094576;28;20047;-89
2022/08/20 01:44:37;;;;;;;0.30;0.30;;;19.50;99.90;;;;;;5093985;28;20080;-91
2022/08/20 01:47:14;;;;;;;0.40;0.40;;;19.50;99.90;;;;;;5091572;28;20050;-90
2022/08/20 01:49:43;;;;;;;0.35;0.35;;;19.50;99.90;;;;;;5087572;28;20066;-89
2022/08/20 01:52:18;;;;;;;0.32;0.32;;;19.40;99.90;;;;;;5087076;28;20051;-89
2022/08/20 01:54:45;;;;;;;0.30;0.30;;;19.40;99.90;;;;;;5093636;28;20118;-89
2022/08/20 01:57:14;;;;;;;0.40;0.40;;;19.30;99.90;;;;;;5094328;28;20514;-89
2022/08/20 01:59:41;;;;;;;0.30;0.30;;;19.40;99.90;;;;;;5077380;28;20084;-90
2022/08/20 02:02:07;;;;;;;0.40;0.40;;;19.40;99.90;;;;;;5059788;28;20126;-91
2022/08/20 02:04:33;;;;;;;0.40;0.40;;;19.40;99.90;;;;;;5086338;28;20557;-91
2022/08/20 02:07:03;;;;;;;0.35;0.35;;;19.40;99.90;;;;;;5060936;28;20062;-90
2022/08/20 02:09:32;;;;;;;0.40;0.40;;;19.40;99.90;;;;;;5093200;28;20047;-90
2022/08/20 02:11:58;;;;;;;0.30;0.30;;;19.30;99.90;;;;;;5093661;28;20031;-89
2022/08/20 02:14:24;;;;;;;0.30;0.30;;;19.30;99.90;;;;;;5062737;28;20544;-90
2022/08/20 02:16:50;;;;;;;0.30;0.30;;;19.30;99.90;;;;;;5069818;28;20709;-90
2022/08/20 02:19:22;;;;;;;0.30;0.30;;;19.30;99.90;;;;;;5077527;28;20085;-89
2022/08/20 02:21:54;;;;;;;0.30;0.30;;;19.30;99.90;;;;;;5102265;28;20082;-91
2022/08/20 02:24:20;;;;;;;0.30;0.30;;;19.20;99.90;;;;;;5081172;28;20054;-91
2022/08/20 02:26:46;;;;;;;0.38;0.38;;;19.20;99.90;;;;;;5074929;27;20051;-89
2022/08/20 02:29:13;;;;;;;0.30;0.30;;;19.10;99.90;;;;;;5097377;27;20046;-90
2022/08/20 02:31:43;;;;;;;0.40;0.40;;;19.10;99.90;;;;;;5099673;27;20039;-89
2022/08/20 02:34:11;;;;;;;0.30;0.30;;;19.10;99.90;;;;;;5105983;27;20043;-89
2022/08/20 02:36:39;;;;;;;0.40;0.40;;;19.10;99.90;;;;;;5104474;27;20461;-88
2022/08/20 02:39:08;;;;;;;0.30;0.30;;;19.10;99.90;;;;;;5081340;27;20039;-90
2022/08/20 02:41:36;;;;;;;0.30;0.30;;;19.10;99.90;;;;;;5097502;27;20050;-90
2022/08/20 02:44:03;;;;;;;0.30;0.30;;;19.20;99.90;;;;;;5097209;27;20046;-89
2022/08/20 02:46:29;;;;;;;0.40;0.40;;;19.20;99.90;;;;;;5095993;27;20659;-90
2022/08/20 02:48:55;;;;;;;0.40;0.40;;;19.20;99.90;;;;;;5096333;27;20613;-90
2022/08/20 02:51:22;;;;;;;0.32;0.32;;;19.20;99.90;;;;;;5096179;27;20092;-90
2022/08/20 02:53:47;;;;;;;0.30;0.30;;;19.10;99.90;;;;;;5064306;27;20039;-91
2022/08/20 02:56:14;;;;;;;0.40;0.40;;;19.10;99.90;;;;;;5081569;27;20050;-89
2022/08/20 02:58:39;;;;;;;0.30;0.30;;;19.00;99.90;;;;;;5077985;27;20082;-88
2022/08/20 03:01:08;;;;;;;0.40;0.40;;;19.10;99.90;;;;;;5078308;27;20407;-89
2022/08/20 03:03:34;;;;;;;0.30;0.30;;;19.10;99.90;;;;;;5094923;27;20154;-89
2022/08/20 03:06:01;;;;;;;0.30;0.30;;;19.00;99.90;;;;;;5095498;27;20128;-88
2022/08/20 03:08:28;;;;;;;0.30;0.30;;;19.00;99.90;;;;;;5096475;27;20136;-89
2022/08/20 03:10:55;;;;;;;0.30;0.30;;;18.90;99.90;;;;;;5076753;27;20043;-89
2022/08/20 03:13:21;;;;;;;0.30;0.30;;;18.90;99.90;;;;;;5088800;27;20527;-89
2022/08/20 03:15:53;;;;;;;0.30;0.30;;;18.80;99.90;;;;;;5096654;27;20391;-90
2022/08/20 03:18:20;;;;;;;0.40;0.40;;;18.80;99.90;;;;;;5102101;27;20115;-89
2022/08/20 03:20:47;;;;;;;0.40;0.40;;;18.80;99.90;;;;;;5095716;27;20431;-89
2022/08/20 03:23:14;;;;;;;0.30;0.30;;;18.80;99.90;;;;;;5097016;27;20058;-89
2022/08/20 03:25:40;;;;;;;0.40;0.40;;;18.70;99.90;;;;;;5092699;27;20528;-88
2022/08/20 03:28:06;;;;;;;0.30;0.30;;;18.60;99.90;;;;;;5092835;27;20422;-89
2022/08/20 03:30:32;;;;;;;0.30;0.30;;;18.60;99.90;;;;;;5088690;27;20047;-89
2022/08/20 03:32:58;;;;;;;0.30;0.30;;;18.60;99.90;;;;;;5054261;27;20035;-89
2022/08/20 03:35:26;;;;;;;0.40;0.40;;;18.60;99.90;;;;;;5060051;27;20081;-89
2022/08/20 03:37:54;;;;;;;0.30;0.30;;;18.60;99.90;;;;;;5087238;27;20039;-90
2022/08/20 03:40:26;;;;;;;0.32;0.32;;;18.50;99.90;;;;;;5077812;27;20039;-89
2022/08/20 03:42:52;;;;;;;0.40;0.40;;;18.40;99.90;;;;;;5088558;27;20118;-89
2022/08/20 03:45:19;;;;;;;0.30;0.30;;;18.40;99.90;;;;;;5095002;27;21005;-90
2022/08/20 03:47:45;;;;;;;0.38;0.38;;;18.40;99.90;;;;;;5078041;27;20468;-89
2022/08/20 03:50:12;;;;;;;0.30;0.30;;;18.40;99.90;;;;;;5092940;27;20039;-89
2022/08/20 03:52:38;;;;;;;0.45;0.45;;;18.40;99.90;;;;;;5085905;27;20580;-89
2022/08/20 03:55:06;;;;;;;0.50;0.50;;;18.40;99.90;;;;;;5075764;27;20945;-89
2022/08/20 03:57:32;;;;;;;0.30;0.30;;;18.30;99.90;;;;;;5093806;27;20039;-88
2022/08/20 03:59:58;;;;;;;0.30;0.30;;;18.20;99.90;;;;;;5075984;27;20514;-88
2022/08/20 04:02:24;;;;;;;0.30;0.30;;;18.20;99.90;;;;;;5092657;27;20039;-89
2022/08/20 04:04:50;;;;;;;0.30;0.30;;;18.10;99.90;;;;;;5092856;27;20051;-89
2022/08/20 04:07:24;;;;;;;0.30;0.30;;;18.10;99.90;;;;;;5078987;27;20081;-89
2022/08/20 04:09:51;;;;;;;0.30;0.30;;;18.10;99.90;;;;;;5096113;27;20103;-88
2022/08/20 04:12:17;;;;;;;0.40;0.40;;;18.10;99.90;;;;;;5094714;27;20076;-89
2022/08/20 04:14:43;;;;;;;0.30;0.30;;;18.10;99.90;;;;;;5061023;27;20525;-87
2022/08/20 04:17:11;;;;;;;0.30;0.30;;;18.10;99.90;;;;;;5092842;27;20042;-88
2022/08/20 04:19:38;;;;;;;0.40;0.40;;;18.10;99.90;;;;;;5091531;27;20055;-89
2022/08/20 04:22:04;;;;;;;0.30;0.30;;;18.10;99.90;;;;;;5075123;27;20810;-88
2022/08/20 04:24:30;;;;;;;0.30;0.30;;;18.10;99.90;;;;;;5093539;27;20395;-88
2022/08/20 04:26:57;;;;;;;0.30;0.30;;;18.00;99.90;;;;;;5073238;27;20078;-88
2022/08/20 04:29:24;;;;;;;0.30;0.30;;;18.00;99.90;;;;;;5091996;27;20047;-88
2022/08/20 04:31:51;;;;;;;0.30;0.30;;;18.00;99.90;;;;;;5097868;27;20043;-88
2022/08/20 04:34:18;;;;;;;0.30;0.30;;;18.00;99.90;;;;;;5093405;27;20967;-89
2022/08/20 04:36:46;;;;;;;0.30;0.30;;;18.10;99.90;;;;;;5075372;27;20052;-88
2022/08/20 04:39:13;;;;;;;0.47;0.47;;;18.10;99.90;;;;;;5093754;27;20047;-88
2022/08/20 04:41:40;;;;;;;0.40;0.40;;;18.10;99.90;;;;;;5092727;27;20050;-89
2022/08/20 04:44:06;;;;;;;0.40;0.40;;;18.10;99.90;;;;;;5074446;27;20046;-87
2022/08/20 04:46:32;;;;;;;0.30;0.30;;;18.10;99.90;;;;;;5093087;27;20074;-87
2022/08/20 04:48:59;;;;;;;0.30;0.30;;;18.10;99.90;;;;;;5091094;27;20171;-88
2022/08/20 04:51:25;;;;;;;0.40;0.40;;;18.20;99.90;;;;;;5091073;27;20440;-88
2022/08/20 04:53:53;;;;;;;0.40;0.40;;;18.00;99.90;;;;;;5056999;27;20047;-87
2022/08/20 04:56:22;;;;;;;0.40;0.40;;;18.00;99.90;;;;;;5075525;27;20088;-87
2022/08/20 04:58:49;;;;;;;0.40;0.40;;;18.10;99.90;;;;;;5087964;27;20054;-88
2022/08/20 05:01:15;;;;;;;0.40;0.40;;;18.10;99.90;;;;;;5091945;27;20043;-88
2022/08/20 05:03:41;;;;;;;0.30;0.30;;;18.10;99.90;;;;;;5090573;27;20756;-88
2022/08/20 05:06:09;;;;;;;1.35;0.88;;;18.10;99.90;;;;;;5075013;27;20043;-87
2022/08/20 05:08:37;;;;;;;0.38;0.38;;;18.00;99.90;;;;;;5091712;27;20054;-87
2022/08/20 05:11:04;;;;;;;0.30;0.30;;;18.10;99.90;;;;;;5089611;27;20031;-86
2022/08/20 05:13:30;;;;;;;0.30;0.30;;;18.10;99.90;;;;;;5091105;27;20560;-87
2022/08/20 05:15:58;;;;;;;0.40;0.40;;;18.00;99.90;;;;;;5071380;27;20055;-87
2022/08/20 05:18:25;;;;;;;0.40;0.40;;;18.00;99.90;;;;;;5063323;28;20145;-87
2022/08/20 05:20:51;;;;;;;0.30;0.30;;;18.10;99.90;;;;;;5089828;27;20094;-88
2022/08/20 05:23:19;;;;;;;0.40;0.40;;;18.10;99.90;;;;;;5074186;27;20043;-88
2022/08/20 05:25:50;;;;;;;0.35;0.35;;;18.10;99.90;;;;;;5090670;27;20130;-87
2022/08/20 05:28:26;;;;;;;0.40;0.40;;;18.10;99.90;;;;;;5090367;27;20126;-87
2022/08/20 05:30:52;;;;;;;0.40;0.40;;;18.10;99.90;;;;;;5090969;27;20168;-87
2022/08/20 05:33:20;;;;;;;0.30;0.30;;;18.10;99.90;;;;;;5075078;28;20065;-88
2022/08/20 05:35:48;;;;;;;0.30;0.30;;;18.10;99.90;;;;;;5075300;28;20043;-88
2022/08/20 05:38:17;;;;;;;0.40;0.40;;;18.20;99.90;;;;;;5074057;28;20447;-87
2022/08/20 05:40:44;;;;;;;0.30;0.30;;;18.20;99.90;;;;;;5075734;28;20035;-88
2022/08/20 05:43:10;;;;;;;0.40;0.40;;;18.20;99.90;;;;;;5089713;28;20099;-88
2022/08/20 05:45:37;;;;;;;0.30;0.30;;;18.20;99.90;;;;;;5091838;28;20031;-89
2022/08/20 05:48:13;;;;;;;0.30;0.30;;;18.20;99.90;;;;;;5080916;28;20537;-89
2022/08/20 05:50:39;;;;;;;0.30;0.30;;;18.20;99.90;;;;;;5092462;28;20571;-89
2022/08/20 05:53:05;;;;;;;0.40;0.40;;;18.20;99.90;;;;;;5075898;28;20139;-88
2022/08/20 05:55:31;;;;;;;0.38;0.38;;;18.20;99.90;;;;;;5074180;28;20094;-89
2022/08/20 05:57:59;;;;;;;0.30;0.30;;;18.20;99.90;;;;;;5074991;28;20079;-89
2022/08/20 06:00:25;;;;;;;0.40;0.40;;;18.20;99.90;;;;;;5052032;27;20043;-88
2022/08/20 06:05:35;;;;;;;;;;;18.30;99.90;;;;;;5080096;27;20677;-88
2022/08/20 06:08:04;;;;;;;0.40;0.40;;;18.30;99.90;;;;;;5078359;27;19928;-87
2022/08/20 06:10:30;;;;;;;0.40;0.40;;;18.30;99.90;;;;;;5096921;27;20031;-88
2022/08/20 06:12:56;;;;;;;0.32;0.32;;;18.40;99.90;;;;;;5086601;27;20043;-88
2022/08/20 06:15:24;;;;;;;0.30;0.30;;;18.40;99.90;;;;;;5079156;27;20050;-88
2022/08/20 06:17:50;;;;;;;0.40;0.40;;;18.50;99.90;;;;;;5044938;27;20500;-90
2022/08/20 06:20:22;;;;;;;0.30;0.30;;;18.50;99.90;;;;;;5045047;27;20219;-90
2022/08/20 06:22:47;;;;;;;0.30;0.30;;;18.40;99.90;;;;;;5096641;27;20051;-92
2022/08/20 06:25:13;;;;;;;0.40;0.40;;;18.50;99.90;;;;;;5079454;27;20046;-88
2022/08/20 06:27:41;;;;;;;0.30;0.30;;;18.60;99.90;;;;;;5082889;27;20082;-91
2022/08/20 06:30:10;;;;;;;0.30;0.30;;;18.70;99.90;;;;;;5080005;27;20146;-88
2022/08/20 06:32:36;;;;;;;0.30;0.30;;;18.80;99.90;;;;;;5083128;27;20133;-89
2022/08/20 06:35:05;;;;;;;0.30;0.30;;;19.00;99.90;;;;;;5076589;27;20134;-89
2022/08/20 06:37:35;;;;;;;0.40;0.40;;;19.00;99.90;;;;;;5080379;27;20043;-90
2022/08/20 06:40:15;;;;;;;0.30;0.30;;;19.20;99.90;;;;;;5080162;27;20118;-88
2022/08/20 06:42:42;;;;;;;0.30;0.30;;;19.30;99.90;;;;;;5080213;27;20070;-89
2022/08/20 06:45:10;;;;;;;0.40;0.40;;;19.30;99.90;;;;;;5078032;27;20164;-89
2022/08/20 06:47:42;;;;;;;0.40;0.40;;;19.20;99.90;;;;;;5038716;27;20043;-90
2022/08/20 06:50:19;;;;;;;0.30;0.30;;;19.20;99.90;;;;;;5079679;27;20106;-90
2022/08/20 06:52:46;;;;;;;0.40;0.40;;;19.20;99.90;;;;;;5095239;27;20632;-87
2022/08/20 06:55:13;;;;;;;0.30;0.30;;;19.20;99.90;;;;;;5077070;27;20036;-89
2022/08/20 06:57:40;;;;;;;0.40;0.40;;;19.00;99.90;;;;;;5071287;27;20039;-88
2022/08/20 07:00:10;;;;;;;0.30;0.30;;;19.00;99.90;;;;;;5077640;27;20103;-89
2022/08/20 07:02:36;;;;;;;0.30;0.30;;;19.30;99.90;;;;;;5078779;27;20042;-91
2022/08/20 07:05:04;;;;;;;0.40;0.40;;;19.50;99.90;;;;;;5062503;27;20079;-91
2022/08/20 07:07:30;;;;;;;0.40;0.40;;;20.00;99.90;;;;;;5076794;27;20051;-89
2022/08/20 07:10:01;;;;;;;0.40;0.40;;;20.00;99.90;;;;;;5077176;27;20051;-87
2022/08/20 07:12:26;;;;;;;0.40;0.40;;;20.10;99.90;;;;;;5075937;27;20050;-87
2022/08/20 07:14:52;;;;;;;0.38;0.38;;;20.20;99.90;;;;;;5075145;27;20065;-87
2022/08/20 07:17:18;;;;;;;0.30;0.30;;;20.20;99.90;;;;;;5095618;27;20120;-87
2022/08/20 07:19:43;;;;;;;0.40;0.40;;;19.90;99.90;;;;;;5095600;27;20146;-87
2022/08/20 07:22:11;;;;;;;0.32;0.32;;;19.70;99.90;;;;;;5059585;27;20047;-87
2022/08/20 07:24:37;;;;;;;0.30;0.30;;;19.60;99.90;;;;;;5075902;27;20063;-87
2022/08/20 07:27:03;;;;;;;0.30;0.30;;;19.50;99.90;;;;;;5093156;27;20066;-86
2022/08/20 07:32:33;;;;;;;0.30;0.30;;;19.40;99.90;;;;;;5078624;27;20391;-87
2022/08/20 07:34:58;;;;;;;;;;;19.50;99.90;;;;;;5094276;27;20309;-88
2022/08/20 07:37:24;;;;;;;0.40;0.40;;;19.70;99.90;;;;;;5093187;27;20321;-88
2022/08/20 07:39:51;;;;;;;0.40;0.40;;;19.90;99.90;;;;;;5092241;27;20651;-87
2022/08/20 07:42:19;;;;;;;0.40;0.40;;;20.20;99.90;;;;;;5095672;27;20075;-87
2022/08/20 07:44:45;;;;;;;0.30;0.30;;;20.30;99.90;;;;;;5078607;27;20047;-88
2022/08/20 07:47:11;;;;;;;0.35;0.35;;;20.70;99.90;;;;;;5059438;27;20043;-88
2022/08/20 07:49:38;;;;;;;0.40;0.40;;;20.70;99.90;;;;;;5050787;27;20068;-87
2022/08/20 07:52:06;;;;;;;0.40;0.40;;;20.80;99.90;;;;;;5087836;27;20069;-87
2022/08/20 07:54:31;;;;;;;0.40;0.40;;;20.60;99.90;;;;;;5057578;27;20047;-85
2022/08/20 07:57:02;;;;;;;0.40;0.40;;;20.60;99.90;;;;;;5092616;27;20049;-86
2022/08/20 07:59:29;;;;;;;0.30;0.30;;;20.30;99.90;;;;;;5089505;27;20098;-84
2022/08/20 08:01:57;;;;;;;0.30;0.30;;;20.20;99.90;;;;;;5092110;27;20051;-84
2022/08/20 08:04:23;;;;;;;0.30;0.30;;;20.10;99.90;;;;;;5083278;27;20046;-86
2022/08/20 08:06:50;;;;;;;0.38;0.38;;;20.10;99.90;;;;;;5082294;27;20119;-85
2022/08/20 08:09:16;;;;;;;0.30;0.30;;;19.90;99.90;;;;;;5074852;27;20096;-86
2022/08/20 08:11:49;;;;;;;0.40;0.40;;;20.00;99.90;;;;;;5083792;27;20054;-86
2022/08/20 08:14:20;;;;;;;0.30;0.30;;;20.20;99.90;;;;;;5104687;27;20055;-84
2022/08/20 08:16:45;;;;;;;0.38;0.38;;;20.60;99.90;;;;;;5089255;27;20393;-84
2022/08/20 08:19:14;;;;;;;0.40;0.40;;;20.60;99.90;;;;;;5088027;27;20058;-84
2022/08/20 08:21:40;;;;;;;0.30;0.30;;;20.60;99.90;;;;;;5089525;27;20043;-85
2022/08/20 08:24:06;;;;;;;0.40;0.40;;;20.50;99.90;;;;;;5089778;27;20081;-84
2022/08/20 08:26:32;;;;;;;0.40;0.40;;;20.70;99.90;;;;;;5087043;28;20237;-84
2022/08/20 08:28:58;;;;;;;0.30;0.30;;;21.00;99.90;;;;;;5087708;28;20130;-85
2022/08/20 08:31:24;;;;;;;0.30;0.30;;;21.10;99.90;;;;;;5086643;28;20131;-83
2022/08/20 08:33:50;;;;;;;0.30;0.30;;;21.00;99.90;;;;;;5086867;28;20054;-84
2022/08/20 08:36:16;;;;;;;0.30;0.30;;;21.60;99.90;;;;;;5089156;28;20055;-86
2022/08/20 08:38:43;;;;;;;0.30;0.30;;;21.90;99.90;;;;;;5085709;28;20058;-83
2022/08/20 08:41:28;;;;;;;0.30;0.30;;;21.40;99.90;;;;;;5085374;28;20472;-84
2022/08/20 08:44:08;;;;;;;0.30;0.30;;;21.50;99.90;;;;;;5059228;28;20043;-83
2022/08/20 08:46:48;;;;;;;0.40;0.40;;;21.60;99.90;;;;;;5071067;28;20138;-83
2022/08/20 08:49:20;;;;;;;0.30;0.30;;;21.30;99.90;;;;;;5071867;28;20043;-84
2022/08/20 08:51:57;;;;;;;0.30;0.30;;;21.30;99.90;;;;;;5086158;28;20769;-83
2022/08/20 08:54:27;;;;;;;0.30;0.30;;;21.20;99.90;;;;;;5085664;28;20491;-84
2022/08/20 08:56:53;;;;;;;0.40;0.40;;;21.50;99.90;;;;;;5087808;28;20087;-83
2022/08/20 08:59:21;;;;;;;0.38;0.38;;;21.40;99.90;;;;;;5070873;28;20048;-83
2022/08/20 09:01:51;;;;;;;0.30;0.30;;;21.60;99.90;;;;;;5087668;28;20103;-85
2022/08/20 09:04:20;;;;;;;0.30;0.30;;;21.50;99.90;;;;;;5087698;28;20043;-82
2022/08/20 09:06:46;;;;;;;0.30;0.30;;;21.60;99.90;;;;;;5089175;28;20104;-83
2022/08/20 09:09:23;;;;;;;0.30;0.30;;;21.60;99.90;;;;;;5086379;28;20055;-84
2022/08/20 09:11:52;;;;;;;0.30;0.30;;;21.50;99.90;;;;;;5097136;27;20057;-83
2022/08/20 09:14:18;;;;;;;0.30;0.30;;;21.50;99.90;;;;;;5088800;28;20638;-82
2022/08/20 09:16:44;;;;;;;0.30;0.30;;;21.40;99.90;;;;;;5089894;28;20539;-83
2022/08/20 09:19:10;;;;;;;0.30;0.30;;;21.40;99.90;;;;;;5070236;28;20690;-83
2022/08/20 09:21:35;;;;;;;0.30;0.30;;;21.40;99.90;;;;;;5085880;28;20044;-82
2022/08/20 09:24:01;;;;;;;0.30;0.30;;;21.70;99.90;;;;;;5087501;28;20391;-83
2022/08/20 09:26:27;;;;;;;0.30;0.30;;;22.20;99.90;;;;;;5084451;28;20060;-83
2022/08/20 09:28:53;;;;;;;0.40;0.40;;;22.40;99.90;;;;;;5088145;28;20096;-83
2022/08/20 09:31:18;;;;;;;0.30;0.30;;;22.80;99.90;;;;;;5086915;28;20044;-83
2022/08/20 09:33:44;;;;;;;0.30;0.30;;;22.90;99.90;;;;;;5072300;28;20048;-82
2022/08/20 09:36:10;;;;;;;0.30;0.30;;;22.60;99.90;;;;;;5085381;28;20051;-82
2022/08/20 09:38:35;;;;;;;0.30;0.30;;;22.60;99.90;;;;;;5087193;28;20427;-82
2022/08/20 09:41:01;;;;;;;0.30;0.30;;;22.20;99.90;;;;;;5053782;28;20132;-81
2022/08/20 09:43:27;;;;;;;0.30;0.30;;;22.00;99.90;;;;;;5086909;28;20047;-83
2022/08/20 09:45:53;;;;;;;0.30;0.30;;;22.30;99.90;;;;;;5069925;28;20130;-83
2022/08/20 09:48:18;;;;;;;0.30;0.30;;;22.60;99.90;;;;;;5085078;28;20036;-83
2022/08/20 09:50:47;;;;;;;0.30;0.30;;;22.50;99.90;;;;;;5085354;28;20391;-82
2022/08/20 09:53:14;;;;;;;0.30;0.30;;;22.60;99.90;;;;;;5088732;28;20404;-83
2022/08/20 09:55:43;;;;;;;0.30;0.30;;;22.80;99.90;;;;;;5086551;28;20668;-81
2022/08/20 09:58:29;;;;;;;0.30;0.30;;;23.00;99.90;;;;;;5086860;28;20105;-83
2022/08/20 10:00:55;;;;;;;0.30;0.30;;;23.20;99.90;;;;;;5089140;28;20069;-83
2022/08/20 10:03:21;;;;;;;0.30;0.30;;;23.10;99.90;;;;;;5086914;28;20405;-82
2022/08/20 10:05:47;;;;;;;0.30;0.30;;;23.60;99.90;;;;;;5068443;28;20925;-81
2022/08/20 10:08:13;;;;;;;0.30;0.30;;;23.50;99.90;;;;;;5089950;28;20124;-81
2022/08/20 10:10:46;;;;;;;0.30;0.30;;;23.60;99.90;;;;;;5084885;28;20044;-82
2022/08/20 10:13:11;;;;;;;0.30;0.30;;;23.90;99.90;;;;;;5069995;28;20047;-81
2022/08/20 10:15:45;;;;;;;0.30;0.30;;;23.90;99.90;;;;;;5084195;28;20074;-80
2022/08/20 10:18:10;;;;;;;0.30;0.30;;;24.10;99.90;;;;;;5067825;28;20086;-80
2022/08/20 10:20:37;;;;;;;0.30;0.30;;;23.90;99.90;;;;;;5086425;28;20055;-83
2022/08/20 10:23:03;;;;;;;0.30;0.30;;;24.30;99.90;;;;;;5083368;28;20071;-83
2022/08/20 10:25:29;;;;;;;0.40;0.40;;;24.50;99.90;;;;;;5086036;28;20052;-82
2022/08/20 10:27:55;;;;;;;0.30;0.30;;;25.00;99.90;;;;;;5085477;28;20052;-82
2022/08/20 10:30:21;;;;;;;0.30;0.30;;;25.30;99.90;;;;;;5084782;28;20126;-81
2022/08/20 10:32:47;;;;;;;0.30;0.30;;;25.30;99.90;;;;;;5087207;28;20395;-81
2022/08/20 10:35:31;;;;;;;0.30;0.30;;;25.30;99.90;;;;;;5084057;28;20051;-83
2022/08/20 10:37:57;;;;;;;0.30;0.30;;;24.90;99.90;;;;;;5082968;28;20085;-81
2022/08/20 10:40:23;;;;;;;0.30;0.30;;;24.90;99.90;;;;;;5085560;28;20118;-80
2022/08/20 10:42:50;;;;;;;0.20;0.20;;;24.50;99.90;;;;;;5084707;28;20147;-81
2022/08/20 10:45:16;;;;;;;0.20;0.20;;;25.00;99.90;;;;;;5088666;28;20090;-81
2022/08/20 10:47:43;;;;;;;0.20;0.20;;;24.90;99.90;;;;;;5091365;28;20065;-80
2022/08/20 10:50:13;;;;;;;0.30;0.30;;;25.10;99.90;;;;;;5093164;28;20055;-82
2022/08/20 10:52:40;;;;;;;0.30;0.30;;;25.30;99.90;;;;;;5088342;28;20582;-81
2022/08/20 10:55:06;;;;;;;0.30;0.30;;;25.20;99.90;;;;;;5089707;28;20073;-81
2022/08/20 10:57:32;;;;;;;0.30;0.30;;;25.10;99.90;;;;;;5089494;28;20056;-82
2022/08/20 10:59:59;;;;;;;0.30;0.30;;;25.30;99.90;;;;;;5093034;28;20040;-81
2022/08/20 11:02:26;;;;;;;0.30;0.30;;;25.10;99.90;;;;;;5092317;28;20112;-82
2022/08/20 11:04:53;;;;;;;0.30;0.30;;;25.50;99.90;;;;;;5091494;28;20047;-82
2022/08/20 11:07:30;;;;;;;0.30;0.30;;;25.40;99.90;;;;;;5088486;28;20413;-81
2022/08/20 11:09:56;;;;;;;0.30;0.30;;;26.00;99.90;;;;;;5088050;28;20047;-81
2022/08/20 11:12:22;;;;;;;0.30;0.30;;;26.00;99.90;;;;;;5088840;28;20047;-84
2022/08/20 11:14:49;;;;;;;0.20;0.20;;;26.00;99.90;;;;;;5090182;28;20043;-83
2022/08/20 11:17:21;;;;;;;0.30;0.30;;;25.90;99.90;;;;;;5088691;28;20537;-85
2022/08/20 11:19:47;;;;;;;0.20;0.20;;;26.00;99.90;;;;;;5088646;28;20044;-82
2022/08/20 11:22:12;;;;;;;0.20;0.20;;;26.10;99.90;;;;;;5090497;28;20082;-82
2022/08/20 11:24:38;;;;;;;0.20;0.20;;;26.10;99.90;;;;;;5091147;28;20056;-82
2022/08/20 11:27:06;;;;;;;0.20;0.20;;;25.80;99.90;;;;;;5099780;27;20059;-83
2022/08/20 11:29:33;;;;;;;0.30;0.30;;;25.30;99.90;;;;;;5074512;27;20428;-83
2022/08/20 11:31:59;;;;;;;0.25;0.25;;;25.00;99.90;;;;;;5091791;27;20043;-81
2022/08/20 11:34:25;;;;;;;0.30;0.30;;;25.20;99.90;;;;;;5077480;27;20080;-82
2022/08/20 11:36:51;;;;;;;0.30;0.30;;;26.00;99.90;;;;;;5090262;27;20793;-82
2022/08/20 11:39:17;;;;;;;0.30;0.30;;;26.60;99.90;;;;;;5073549;27;20057;-85
2022/08/20 11:41:43;;;;;;;0.30;0.30;;;26.70;99.90;;;;;;5090500;27;20083;-84
2022/08/20 11:44:09;;;;;;;0.30;0.30;;;27.10;99.90;;;;;;5072674;27;20956;-83
2022/08/20 11:46:35;;;;;;;0.30;0.30;;;27.20;99.90;;;;;;5073103;27;20128;-82
2022/08/20 11:49:01;;;;;;;0.30;0.30;;;26.40;99.90;;;;;;5087050;27;20039;-83
2022/08/20 11:51:27;;;;;;;0.30;0.30;;;26.00;99.90;;;;;;5090520;27;20043;-83
2022/08/20 11:53:53;;;;;;;0.30;0.30;;;25.30;99.90;;;;;;5091753;27;20043;-82
2022/08/20 11:56:19;;;;;;;0.30;0.30;;;25.50;99.90;;;;;;5091541;27;21200;-82
2022/08/20 11:58:47;;;;;;;0.30;0.30;;;25.40;99.90;;;;;;5091662;27;20086;-83
2022/08/20 12:01:15;;;;;;;0.30;0.30;;;26.00;99.90;;;;;;5111064;27;20051;-84
2022/08/20 12:03:40;;;;;;;0.30;0.30;;;26.50;99.90;;;;;;5091691;27;20096;-83
2022/08/20 12:06:06;;;;;;;0.30;0.30;;;26.90;99.90;;;;;;5072443;27;20040;-83
2022/08/20 12:08:32;;;;;;;0.30;0.30;;;27.00;99.90;;;;;;5110635;27;20114;-81
2022/08/20 12:11:00;;;;;;;0.20;0.20;;;27.10;99.90;;;;;;5093819;27;20044;-82
2022/08/20 12:13:31;;;;;;;0.20;0.20;;;27.40;99.90;;;;;;5108788;27;20403;-82
2022/08/20 12:15:57;;;;;;;0.22;0.22;;;27.30;99.90;;;;;;5092745;27;20134;-81
2022/08/20 12:18:22;;;;;;;0.20;0.20;;;27.40;99.90;;;;;;5091888;27;20158;-82
2022/08/20 12:20:48;;;;;;;0.20;0.20;;;26.60;99.90;;;;;;5090195;27;20519;-84
2022/08/20 12:23:14;;;;;;;0.20;0.20;;;26.20;99.90;;;;;;5090630;27;20548;-83
2022/08/20 12:25:40;;;;;;;0.20;0.20;;;26.80;99.90;;;;;;5089181;27;20058;-83
2022/08/20 12:28:06;;;;;;;0.30;0.30;;;27.20;99.90;;;;;;5083697;28;20043;-83
2022/08/20 12:30:33;;;;;;;0.20;0.20;;;27.30;99.90;;;;;;5086428;28;20116;-83
2022/08/20 12:32:59;;;;;;;0.20;0.20;;;27.70;99.90;;;;;;5088234;28;20050;-83
2022/08/20 12:35:25;;;;;;;0.28;0.28;;;27.70;98.70;;;;;;5088720;28;20047;-80
2022/08/20 12:37:51;;;;;;;0.30;0.30;;;27.30;99.20;;;;;;5087970;28;20134;-79
2022/08/20 12:40:24;;;;;;;0.25;0.25;;;26.60;99.90;;;;;;5090702;28;20048;-82
2022/08/20 12:42:50;;;;;;;0.30;0.30;;;26.40;99.90;;;;;;5072841;28;20155;-82
2022/08/20 12:45:16;;;;;;;0.30;0.30;;;25.90;99.90;;;;;;5091755;28;20054;-82
2022/08/20 12:47:45;;;;;;;0.20;0.20;;;26.10;99.90;;;;;;5090288;28;20138;-83
2022/08/20 12:50:14;;;;;;;0.30;0.30;;;25.90;99.90;;;;;;5091865;28;20057;-82
2022/08/20 12:52:40;;;;;;;0.30;0.30;;;26.10;99.90;;;;;;5074060;28;20611;-82
2022/08/20 12:55:09;;;;;;;0.20;0.20;;;26.50;99.90;;;;;;5090478;28;20047;-83
2022/08/20 12:57:40;;;;;;;0.20;0.20;;;25.70;99.90;;;;;;5088932;28;20044;-82